createdAt,value
2023-03-03T00:00:47.418Z,15.07
2023-03-03T00:03:19.100Z,19.37
2023-03-03T00:05:47.691Z,17.03
2023-03-03T00:08:16.065Z,18.77
2023-03-03T00:10:45.278Z,17.47
2023-03-03T00:13:19.036Z,17.53
2023-03-03T00:15:49.531Z,14.73
2023-03-03T00:18:26.919Z,16.37
2023-03-03T00:20:57.345Z,17.00
2023-03-03T00:23:32.787Z,17.70
2023-03-03T00:26:01.199Z,18.93
2023-03-03T00:28:31.911Z,18.23
2023-03-03T00:31:03.543Z,17.53
2023-03-03T00:33:34.759Z,18.30
2023-03-03T00:36:23.834Z,18.80
2023-03-03T00:38:52.378Z,19.90
2023-03-03T00:41:25.217Z,20.17
2023-03-03T00:43:54.872Z,20.70
2023-03-03T00:46:25.388Z,17.57
2023-03-03T00:48:53.924Z,18.03
2023-03-03T00:51:33.344Z,17.40
2023-03-03T00:54:01.906Z,18.13
2023-03-03T00:56:30.282Z,20.73
2023-03-03T00:58:58.740Z,17.10
2023-03-03T01:01:31.030Z,17.03
2023-03-03T01:03:59.472Z,17.83
2023-03-03T01:06:28.341Z,15.67
2023-03-03T01:08:57.572Z,28.93
2023-03-03T01:11:28.818Z,26.97
2023-03-03T01:13:58.181Z,19.93
2023-03-03T01:16:28.585Z,23.10
2023-03-03T01:18:58.455Z,22.83
2023-03-03T01:21:26.817Z,25.13
2023-03-03T01:23:55.370Z,20.43
2023-03-03T01:26:23.742Z,19.13
2023-03-03T01:28:52.275Z,21.73
2023-03-03T01:31:20.766Z,22.50
2023-03-03T01:33:49.234Z,20.27
2023-03-03T01:36:24.800Z,20.40
2023-03-03T01:38:53.536Z,22.23
2023-03-03T01:41:22.431Z,23.70
2023-03-03T01:43:51.813Z,23.27
2023-03-03T01:46:38.337Z,29.50
2023-03-03T01:49:12.521Z,26.67
2023-03-03T01:51:48.860Z,29.40
2023-03-03T01:54:23.202Z,69.17
2023-03-03T01:56:53.364Z,37.23
2023-03-03T01:59:24.691Z,25.90
2023-03-03T02:01:53.843Z,25.47
2023-03-03T02:04:22.743Z,25.30
2023-03-03T02:06:58.314Z,21.27
2023-03-03T02:09:35.466Z,23.07
2023-03-03T02:12:08.423Z,19.63
2023-03-03T02:14:36.919Z,20.17
2023-03-03T02:17:05.364Z,19.67
2023-03-03T02:19:44.051Z,19.37
2023-03-03T02:22:18.548Z,21.07
2023-03-03T02:24:51.308Z,22.80
2023-03-03T02:27:22.571Z,19.67
2023-03-03T02:29:52.445Z,23.40
2023-03-03T02:32:20.957Z,19.70
2023-03-03T02:34:50.911Z,20.40
2023-03-03T02:37:20.627Z,19.67
2023-03-03T02:39:49.165Z,47.63
2023-03-03T02:42:21.868Z,40.07
2023-03-03T02:44:56.087Z,35.00
2023-03-03T02:47:25.141Z,32.23
2023-03-03T02:49:53.679Z,24.37
2023-03-03T02:52:22.102Z,23.93
2023-03-03T02:54:51.217Z,27.23
2023-03-03T02:57:19.583Z,29.77
2023-03-03T02:59:49.821Z,25.10
2023-03-03T03:02:20.776Z,23.20
2023-03-03T03:04:49.217Z,19.27
2023-03-03T03:07:22.477Z,24.93
2023-03-03T03:09:51.085Z,23.60
2023-03-03T03:12:21.009Z,20.03
2023-03-03T03:14:52.412Z,18.53
2023-03-03T03:17:22.757Z,16.90
2023-03-03T03:19:52.884Z,17.97
2023-03-03T03:22:21.833Z,26.27
2023-03-03T03:24:50.784Z,29.47
2023-03-03T03:27:19.431Z,31.33
2023-03-03T03:29:49.696Z,29.10
2023-03-03T03:32:19.410Z,27.00
2023-03-03T03:34:49.691Z,24.13
2023-03-03T03:37:18.137Z,20.07
2023-03-03T03:39:47.900Z,22.80
2023-03-03T03:42:16.435Z,24.30
2023-03-03T03:44:45.350Z,23.23
2023-03-03T03:47:13.741Z,22.40
2023-03-03T03:49:42.384Z,26.17
2023-03-03T03:52:12.263Z,26.07
2023-03-03T03:54:41.007Z,19.90
2023-03-03T03:57:09.468Z,16.70
2023-03-03T03:59:37.980Z,18.67
2023-03-03T04:02:06.812Z,16.40
2023-03-03T04:04:35.602Z,17.70
2023-03-03T04:07:04.113Z,19.70
2023-03-03T04:09:33.985Z,21.07
2023-03-03T04:12:03.198Z,25.23
2023-03-03T04:14:32.549Z,19.90
2023-03-03T04:17:01.663Z,19.73
2023-03-03T04:19:30.070Z,16.03
2023-03-03T04:21:58.720Z,17.07
2023-03-03T04:24:27.659Z,18.23
2023-03-03T04:26:58.560Z,18.40
2023-03-03T04:29:27.100Z,18.40
2023-03-03T04:31:55.705Z,16.07
2023-03-03T04:34:24.952Z,18.47
2023-03-03T04:36:53.362Z,49.10
2023-03-03T04:39:21.846Z,35.43
2023-03-03T04:41:50.371Z,21.97
2023-03-03T04:44:21.042Z,22.27
2023-03-03T04:46:50.193Z,20.40
2023-03-03T04:49:19.852Z,20.07
2023-03-03T04:51:48.690Z,16.80
2023-03-03T04:54:17.139Z,16.10
2023-03-03T04:56:46.935Z,17.13
2023-03-03T04:59:15.745Z,21.60
2023-03-03T05:01:52.085Z,18.63
2023-03-03T05:04:24.654Z,18.17
2023-03-03T05:06:53.127Z,17.87
2023-03-03T05:09:21.560Z,23.33
2023-03-03T05:11:49.923Z,18.47
2023-03-03T05:14:18.381Z,20.77
2023-03-03T05:16:48.188Z,21.47
2023-03-03T05:19:16.663Z,19.80
2023-03-03T05:21:45.123Z,23.90
2023-03-03T05:24:15.125Z,18.47
2023-03-03T05:26:43.914Z,15.20
2023-03-03T05:29:12.383Z,19.03
2023-03-03T05:31:40.857Z,34.87
2023-03-03T05:34:10.848Z,29.63
2023-03-03T05:36:40.268Z,17.07
2023-03-03T05:39:08.953Z,18.07
2023-03-03T05:41:37.336Z,17.43
2023-03-03T05:44:05.978Z,18.27
2023-03-03T05:46:34.424Z,17.70
2023-03-03T05:49:03.153Z,17.77
2023-03-03T05:51:32.964Z,15.93
2023-03-03T05:54:01.655Z,17.87
2023-03-03T05:56:30.077Z,19.10
2023-03-03T05:58:58.425Z,17.90
2023-03-03T06:01:27.161Z,17.07
2023-03-03T06:03:55.596Z,18.37
2023-03-03T06:06:26.154Z,21.67
2023-03-03T06:08:57.362Z,17.60
2023-03-03T06:11:26.423Z,20.43
2023-03-03T06:13:56.476Z,18.47
2023-03-03T06:16:25.719Z,20.30
2023-03-03T06:18:55.033Z,19.67
2023-03-03T06:21:23.519Z,20.03
2023-03-03T06:23:51.978Z,21.30
2023-03-03T06:26:21.766Z,22.63
2023-03-03T06:28:50.379Z,18.33
2023-03-03T06:31:18.772Z,19.07
2023-03-03T06:33:47.392Z,19.37
2023-03-03T06:36:15.880Z,20.20
2023-03-03T06:38:44.263Z,25.27
2023-03-03T06:41:13.101Z,20.93
2023-03-03T06:43:42.959Z,18.00
2023-03-03T06:46:11.491Z,23.40
2023-03-03T06:48:40.895Z,23.73
2023-03-03T06:51:21.585Z,25.07
2023-03-03T06:53:50.439Z,22.00
2023-03-03T06:56:19.844Z,21.77
2023-03-03T06:58:50.564Z,24.03
2023-03-03T07:01:20.160Z,22.13
2023-03-03T07:03:48.601Z,22.07
2023-03-03T07:06:23.680Z,20.07
2023-03-03T07:08:53.035Z,17.87
2023-03-03T07:11:23.270Z,17.63
2023-03-03T07:13:55.530Z,24.83
2023-03-03T07:16:28.343Z,21.70
2023-03-03T07:19:01.659Z,17.87
2023-03-03T07:21:34.786Z,19.57
2023-03-03T07:24:19.182Z,20.00
2023-03-03T07:26:47.595Z,19.30
2023-03-03T07:29:25.578Z,20.50
2023-03-03T07:31:56.105Z,20.43
2023-03-03T07:34:25.850Z,21.83
2023-03-03T07:36:57.473Z,22.93
2023-03-03T07:39:40.053Z,18.67
2023-03-03T07:42:22.153Z,25.47
2023-03-03T07:45:00.191Z,27.60
2023-03-03T07:47:31.180Z,26.07
2023-03-03T07:50:02.826Z,25.40
2023-03-03T07:52:40.934Z,17.77
2023-03-03T07:55:27.369Z,23.00
2023-03-03T07:57:59.160Z,15.37
2023-03-03T08:01:12.337Z,19.43
2023-03-03T08:03:45.000Z,16.63
2023-03-03T08:06:32.894Z,18.17
2023-03-03T08:09:14.347Z,17.27
2023-03-03T08:11:52.985Z,17.20
2023-03-03T08:14:28.740Z,16.53
2023-03-03T08:16:59.849Z,17.70
2023-03-03T08:19:32.556Z,15.63
2023-03-03T08:22:04.531Z,16.80
2023-03-03T08:24:33.014Z,17.23
2023-03-03T08:27:01.813Z,14.07
2023-03-03T08:29:30.343Z,18.17
2023-03-03T08:31:58.836Z,14.37
2023-03-03T08:34:27.436Z,16.87
2023-03-03T08:36:58.690Z,13.37
2023-03-03T08:39:27.070Z,14.53
2023-03-03T08:41:55.607Z,16.10
2023-03-03T08:44:24.086Z,14.50
2023-03-03T08:46:52.511Z,16.00
2023-03-03T08:49:27.024Z,15.30
2023-03-03T08:51:57.169Z,15.20
2023-03-03T08:54:25.528Z,13.07
2023-03-03T08:56:53.939Z,13.40
2023-03-03T08:59:22.495Z,14.67
2023-03-03T09:01:51.035Z,13.50
2023-03-03T09:04:19.524Z,15.77
2023-03-03T09:06:48.481Z,14.93
2023-03-03T09:09:18.364Z,16.03
2023-03-03T09:11:47.359Z,15.73
2023-03-03T09:14:18.054Z,15.60
2023-03-03T09:16:51.342Z,14.17
2023-03-03T09:19:24.788Z,17.37
2023-03-03T09:21:55.038Z,16.53
2023-03-03T09:24:30.844Z,15.33
2023-03-03T09:27:00.883Z,17.23
2023-03-03T09:29:31.177Z,14.93
2023-03-03T09:32:02.400Z,15.77
2023-03-03T09:34:40.426Z,14.83
2023-03-03T09:37:23.983Z,17.33
2023-03-03T09:39:55.723Z,17.60
2023-03-03T09:42:43.716Z,15.47
2023-03-03T09:45:34.637Z,14.77
2023-03-03T09:48:34.163Z,17.70
2023-03-03T09:51:14.237Z,14.73
2023-03-03T09:54:15.354Z,13.27
2023-03-03T09:56:50.639Z,13.37
2023-03-03T09:59:43.843Z,14.37
2023-03-03T10:02:32.258Z,12.90
2023-03-03T10:05:15.901Z,13.90
2023-03-03T10:07:56.034Z,12.87
2023-03-03T10:10:55.635Z,12.63
2023-03-03T10:13:40.120Z,14.17
2023-03-03T10:16:23.873Z,14.63
2023-03-03T10:19:00.081Z,15.37
2023-03-03T10:21:35.974Z,16.07
2023-03-03T10:24:15.617Z,12.67
2023-03-03T10:27:13.467Z,11.97
2023-03-03T10:29:56.697Z,14.03
2023-03-03T10:32:48.868Z,12.90
2023-03-03T10:35:32.439Z,14.03
2023-03-03T10:38:27.573Z,11.80
2023-03-03T10:41:05.538Z,11.73
2023-03-03T10:43:51.811Z,12.00
2023-03-03T10:46:37.324Z,12.27
2023-03-03T10:49:28.284Z,12.60
2023-03-03T10:52:21.345Z,9.67
2023-03-03T10:55:05.693Z,11.17
2023-03-03T10:57:40.106Z,11.47
2023-03-03T11:00:25.584Z,10.47
2023-03-03T11:03:32.887Z,13.03
2023-03-03T11:06:06.611Z,10.97
2023-03-03T11:08:42.541Z,11.07
2023-03-03T11:11:19.182Z,11.20
2023-03-03T11:13:53.002Z,13.03
2023-03-03T11:16:43.551Z,10.00
2023-03-03T11:19:27.309Z,12.83
2023-03-03T11:22:08.690Z,12.47
2023-03-03T11:24:51.307Z,9.47
2023-03-03T11:27:32.285Z,12.73
2023-03-03T11:30:35.669Z,13.57
2023-03-03T11:33:08.028Z,12.40
2023-03-03T11:35:44.517Z,10.33
2023-03-03T11:38:45.456Z,9.17
2023-03-03T11:41:24.937Z,10.90
2023-03-03T11:43:55.914Z,10.77
2023-03-03T11:46:30.934Z,10.70
2023-03-03T11:49:04.517Z,9.90
2023-03-03T11:51:45.478Z,10.83
2023-03-03T11:54:22.307Z,11.80
2023-03-03T11:56:56.564Z,9.83
2023-03-03T11:59:46.165Z,9.90
2023-03-03T12:02:38.800Z,10.00
2023-03-03T12:05:13.030Z,16.60
2023-03-03T12:07:51.240Z,10.70
2023-03-03T12:10:25.443Z,9.83
2023-03-03T12:13:04.107Z,12.17
2023-03-03T12:15:39.806Z,9.43
2023-03-03T12:18:23.181Z,8.63
2023-03-03T12:21:04.072Z,9.50
2023-03-03T12:23:49.909Z,10.40
2023-03-03T12:26:26.735Z,10.47
2023-03-03T12:29:04.739Z,9.30
2023-03-03T12:31:45.773Z,10.10
2023-03-03T12:34:20.636Z,8.33
2023-03-03T12:37:00.654Z,8.50
2023-03-03T12:39:49.485Z,7.97
2023-03-03T12:42:26.735Z,11.27
2023-03-03T12:45:06.561Z,8.67
2023-03-03T12:47:40.390Z,8.77
2023-03-03T12:50:28.246Z,8.80
2023-03-03T12:53:09.978Z,8.90
2023-03-03T12:55:49.650Z,7.87
2023-03-03T12:58:29.814Z,9.07
2023-03-03T13:01:08.877Z,8.13
2023-03-03T13:03:55.288Z,7.93
2023-03-03T13:06:31.127Z,7.80
2023-03-03T13:09:20.980Z,6.30
2023-03-03T13:12:13.802Z,8.93
2023-03-03T13:14:50.680Z,8.57
2023-03-03T13:17:29.043Z,6.67
2023-03-03T13:20:01.167Z,7.43
2023-03-03T13:22:38.081Z,7.33
2023-03-03T13:25:18.648Z,7.57
2023-03-03T13:27:52.273Z,7.60
2023-03-03T13:30:25.232Z,6.80
2023-03-03T13:33:01.063Z,6.77
2023-03-03T13:35:40.263Z,9.00
2023-03-03T13:38:13.246Z,11.37
2023-03-03T13:40:46.429Z,7.60
2023-03-03T13:43:20.547Z,8.37
2023-03-03T13:45:57.873Z,7.97
2023-03-03T13:48:46.582Z,6.90
2023-03-03T13:51:25.255Z,8.73
2023-03-03T13:54:03.396Z,7.03
2023-03-03T13:56:50.969Z,8.13
2023-03-03T13:59:30.930Z,6.73
2023-03-03T14:02:08.502Z,8.47
2023-03-03T14:04:50.914Z,6.77
2023-03-03T14:07:24.562Z,6.97
2023-03-03T14:10:03.585Z,10.17
2023-03-03T14:12:43.442Z,6.63
2023-03-03T14:15:22.170Z,5.87
2023-03-03T14:18:20.104Z,6.20
2023-03-03T14:20:52.972Z,10.97
2023-03-03T14:23:26.857Z,7.23
2023-03-03T14:25:59.892Z,7.50
2023-03-03T14:28:30.747Z,8.40
2023-03-03T14:31:02.302Z,9.50
2023-03-03T14:33:32.497Z,8.03
2023-03-03T14:36:07.199Z,5.97
2023-03-03T14:38:42.795Z,6.00
2023-03-03T14:41:23.381Z,11.53
2023-03-03T14:43:59.890Z,11.33
2023-03-03T14:46:38.246Z,7.60
2023-03-03T14:49:08.763Z,7.53
2023-03-03T14:51:46.934Z,7.10
2023-03-03T14:54:22.414Z,7.50
2023-03-03T14:57:12.239Z,7.30
2023-03-03T14:59:41.008Z,6.87
2023-03-03T15:02:30.226Z,7.00
2023-03-03T15:05:18.844Z,10.57
2023-03-03T15:07:51.991Z,9.40
2023-03-03T15:10:36.052Z,7.47
2023-03-03T15:13:39.836Z,10.83
2023-03-03T15:16:18.018Z,17.43
2023-03-03T15:19:10.281Z,7.97
2023-03-03T15:21:45.964Z,8.53
2023-03-03T15:24:22.793Z,10.63
2023-03-03T15:26:57.980Z,8.33
2023-03-03T15:29:31.857Z,7.97
2023-03-03T15:32:06.505Z,12.73
2023-03-03T15:34:41.653Z,8.73
2023-03-03T15:37:28.119Z,8.00
2023-03-03T15:40:04.425Z,6.83
2023-03-03T15:42:39.484Z,9.07
2023-03-03T15:45:17.256Z,10.87
2023-03-03T15:48:01.716Z,7.97
2023-03-03T15:50:41.662Z,9.40
2023-03-03T15:53:27.222Z,11.20
2023-03-03T15:56:07.397Z,9.43
2023-03-03T15:59:06.304Z,9.13
2023-03-03T16:01:36.251Z,10.60
2023-03-03T16:04:10.960Z,8.87
2023-03-03T16:06:48.553Z,13.40
2023-03-03T16:09:33.388Z,9.00
2023-03-03T16:12:13.133Z,9.43
2023-03-03T16:15:06.526Z,9.57
2023-03-03T16:17:44.544Z,9.63
2023-03-03T16:20:22.360Z,10.87
2023-03-03T16:23:28.754Z,11.23
2023-03-03T16:26:06.219Z,9.43
2023-03-03T16:28:49.808Z,14.03
2023-03-03T16:31:23.055Z,10.87
2023-03-03T16:34:02.265Z,13.70
2023-03-03T16:36:38.482Z,11.60
2023-03-03T16:39:14.508Z,13.60
2023-03-03T16:41:52.619Z,13.60
2023-03-03T16:44:48.804Z,14.43
2023-03-03T16:47:30.965Z,17.00
2023-03-03T16:50:13.224Z,15.83
2023-03-03T16:52:48.985Z,19.27
2023-03-03T16:55:21.923Z,15.77
2023-03-03T16:58:00.788Z,18.17
2023-03-03T17:00:36.288Z,16.97
2023-03-03T17:03:32.859Z,17.43
2023-03-03T17:06:07.548Z,19.67
2023-03-03T17:08:56.492Z,15.17
2023-03-03T17:11:33.193Z,18.60
2023-03-03T17:14:37.556Z,19.73
2023-03-03T17:17:15.409Z,18.57
2023-03-03T17:19:57.505Z,20.50
2023-03-03T17:22:41.573Z,16.37
2023-03-03T17:25:18.700Z,16.93
2023-03-03T17:28:25.092Z,12.43
2023-03-03T17:31:03.677Z,11.80
2023-03-03T17:34:00.479Z,13.70
2023-03-03T17:36:45.561Z,15.93
2023-03-03T17:39:46.130Z,14.83
2023-03-03T17:42:22.993Z,16.30
2023-03-03T17:45:03.348Z,16.43
2023-03-03T17:47:47.463Z,19.60
2023-03-03T17:50:58.697Z,14.83
2023-03-03T17:53:45.645Z,14.40
2023-03-03T17:56:22.105Z,14.27
2023-03-03T17:59:18.929Z,15.20
2023-03-03T18:02:02.644Z,14.93
2023-03-03T18:04:46.338Z,11.13
2023-03-03T18:07:29.691Z,13.60
2023-03-03T18:10:43.121Z,10.97
2023-03-03T18:13:31.109Z,16.87
2023-03-03T18:16:14.311Z,14.50
2023-03-03T18:19:01.239Z,15.87
2023-03-03T18:21:35.226Z,14.17
2023-03-03T18:24:30.054Z,13.20
2023-03-03T18:27:15.612Z,14.33
2023-03-03T18:30:25.084Z,13.70
2023-03-03T18:33:14.881Z,12.57
2023-03-03T18:35:45.035Z,16.73
2023-03-03T18:38:35.072Z,13.10
2023-03-03T18:41:04.470Z,13.77
2023-03-03T18:44:25.072Z,11.83
2023-03-03T18:46:55.371Z,13.43
2023-03-03T18:49:57.788Z,12.43
2023-03-03T18:52:29.380Z,15.17
2023-03-03T18:55:26.166Z,15.73
2023-03-03T18:58:29.946Z,14.50
2023-03-03T19:01:09.370Z,12.23
2023-03-03T19:03:58.369Z,15.57
2023-03-03T19:06:53.981Z,12.57
2023-03-03T19:09:52.583Z,15.00
2023-03-03T19:12:52.267Z,12.53
2023-03-03T19:15:44.466Z,13.07
2023-03-03T19:18:21.226Z,37.90
2023-03-03T19:20:55.744Z,28.50
2023-03-03T19:23:35.545Z,13.77
2023-03-03T19:26:35.716Z,13.13
2023-03-03T19:29:16.516Z,13.27
2023-03-03T19:31:54.594Z,13.50
2023-03-03T19:34:30.973Z,14.73
2023-03-03T19:37:08.623Z,13.30
2023-03-03T19:39:52.724Z,13.17
2023-03-03T19:42:35.983Z,13.40
2023-03-03T19:45:14.685Z,15.37
2023-03-03T19:47:49.477Z,13.17
2023-03-03T19:50:31.871Z,12.13
2023-03-03T19:53:09.032Z,13.93
2023-03-03T19:55:50.421Z,16.20
2023-03-03T19:58:30.423Z,12.43
2023-03-03T20:01:08.596Z,13.50
2023-03-03T20:04:00.605Z,12.03
2023-03-03T20:06:52.228Z,12.40
2023-03-03T20:09:31.294Z,14.87
2023-03-03T20:12:27.523Z,12.47
2023-03-03T20:15:09.801Z,11.43
2023-03-03T20:17:58.736Z,12.53
2023-03-03T20:20:58.272Z,11.20
2023-03-03T20:23:36.897Z,11.60
2023-03-03T20:26:15.406Z,11.30
2023-03-03T20:29:07.987Z,12.63
2023-03-03T20:31:42.820Z,14.67
2023-03-03T20:34:18.936Z,13.47
2023-03-03T20:36:57.889Z,13.30
2023-03-03T20:39:45.133Z,15.90
2023-03-03T20:42:23.039Z,15.97
2023-03-03T20:45:04.699Z,17.03
2023-03-03T20:47:43.701Z,18.40
2023-03-03T20:50:22.697Z,20.77
2023-03-03T20:53:03.027Z,18.23
2023-03-03T20:55:43.459Z,21.20
2023-03-03T20:58:22.968Z,19.37
2023-03-03T21:00:59.435Z,19.17
2023-03-03T21:03:34.394Z,24.90
2023-03-03T21:06:05.167Z,23.67
2023-03-03T21:08:49.889Z,20.93
2023-03-03T21:11:23.249Z,24.30
2023-03-03T21:13:54.476Z,23.43
2023-03-03T21:16:35.916Z,23.17
2023-03-03T21:19:07.234Z,23.70
2023-03-03T21:21:37.498Z,25.00
2023-03-03T21:24:09.037Z,24.47
2023-03-03T21:26:51.439Z,24.67
2023-03-03T21:29:22.342Z,24.03
2023-03-03T21:31:52.321Z,22.43
2023-03-03T21:34:24.668Z,21.10
2023-03-03T21:36:54.532Z,26.67
2023-03-03T21:39:29.190Z,22.20
2023-03-03T21:42:02.205Z,24.50
2023-03-03T21:44:34.552Z,19.33
2023-03-03T21:47:04.476Z,21.73
2023-03-03T21:49:33.030Z,27.77
2023-03-03T21:52:04.448Z,28.77
2023-03-03T21:54:33.642Z,25.23
2023-03-03T21:57:04.893Z,27.67
2023-03-03T21:59:33.379Z,23.77
2023-03-03T22:02:01.913Z,23.43
2023-03-03T22:04:31.436Z,26.53
2023-03-03T22:07:00.124Z,27.40
2023-03-03T22:09:29.210Z,28.70
2023-03-03T22:11:57.716Z,30.93
2023-03-03T22:14:27.979Z,30.27
2023-03-03T22:16:57.535Z,32.67
2023-03-03T22:19:26.358Z,27.93
2023-03-03T22:21:54.776Z,32.73
2023-03-03T22:24:23.214Z,32.63
2023-03-03T22:26:51.670Z,31.87
2023-03-03T22:29:23.129Z,31.63
2023-03-03T22:31:53.228Z,30.90
2023-03-03T22:34:21.742Z,30.50
2023-03-03T22:36:50.117Z,28.80
2023-03-03T22:39:18.581Z,28.73
2023-03-03T22:41:47.100Z,29.50
2023-03-03T22:44:15.589Z,32.17
2023-03-03T22:46:43.968Z,30.33
2023-03-03T22:49:13.841Z,25.30
2023-03-03T22:51:42.303Z,26.93
2023-03-03T22:54:10.675Z,28.07
2023-03-03T22:56:39.123Z,27.37
2023-03-03T22:59:07.560Z,29.30
2023-03-03T23:01:37.975Z,27.60
2023-03-03T23:04:07.164Z,27.20
2023-03-03T23:06:36.987Z,25.50
2023-03-03T23:09:05.608Z,27.20
2023-03-03T23:11:34.082Z,26.00
2023-03-03T23:14:02.665Z,27.67
2023-03-03T23:16:31.101Z,27.70
2023-03-03T23:18:59.710Z,23.77
2023-03-03T23:21:28.182Z,26.03
2023-03-03T23:23:58.170Z,26.33
2023-03-03T23:26:26.779Z,24.17
2023-03-03T23:28:55.229Z,28.40
2023-03-03T23:31:25.628Z,22.43
2023-03-03T23:33:54.167Z,25.97
2023-03-03T23:36:22.570Z,25.83
2023-03-03T23:38:50.948Z,24.67
2023-03-03T23:41:20.797Z,22.13
2023-03-03T23:43:49.227Z,26.70
2023-03-03T23:46:17.776Z,26.70
2023-03-03T23:48:46.337Z,24.07
2023-03-03T23:51:14.794Z,24.33
2023-03-03T23:53:43.241Z,26.27
2023-03-03T23:56:11.617Z,23.37
2023-03-03T23:58:41.452Z,23.97
